sensor_id;sensor_type;location;lat;lon;timestamp;P1;durP1;ratioP1;P2;durP2;ratioP2
45792;SDS011;31495;42.740;22.908;2023-08-30T00:00:05;9.27;;;5.55;;
45792;SDS011;31495;42.740;22.908;2023-08-30T00:01:05;12.80;;;4.97;;
45792;SDS011;31495;42.740;22.908;2023-08-30T00:02:05;11.82;;;4.40;;
45792;SDS011;31495;42.740;22.908;2023-08-30T00:03:04;9.40;;;4.70;;
45792;SDS011;31495;42.740;22.908;2023-08-30T00:04:05;7.82;;;4.80;;
45792;SDS011;31495;42.740;22.908;2023-08-30T00:05:04;9.63;;;5.45;;
45792;SDS011;31495;42.740;22.908;2023-08-30T00:06:04;7.25;;;4.50;;
45792;SDS011;31495;42.740;22.908;2023-08-30T00:07:04;7.32;;;4.50;;
45792;SDS011;31495;42.740;22.908;2023-08-30T00:08:04;5.90;;;4.07;;
45792;SDS011;31495;42.740;22.908;2023-08-30T00:09:04;9.88;;;5.13;;
45792;SDS011;31495;42.740;22.908;2023-08-30T00:10:03;12.88;;;5.78;;
45792;SDS011;31495;42.740;22.908;2023-08-30T00:11:03;7.75;;;5.20;;
45792;SDS011;31495;42.740;22.908;2023-08-30T00:12:04;9.23;;;4.93;;
45792;SDS011;31495;42.740;22.908;2023-08-30T00:13:04;9.82;;;4.47;;
45792;SDS011;31495;42.740;22.908;2023-08-30T00:14:04;9.52;;;5.60;;
45792;SDS011;31495;42.740;22.908;2023-08-30T00:15:05;10.38;;;5.50;;
45792;SDS011;31495;42.740;22.908;2023-08-30T00:16:05;6.38;;;4.28;;
45792;SDS011;31495;42.740;22.908;2023-08-30T00:17:06;8.45;;;5.10;;
45792;SDS011;31495;42.740;22.908;2023-08-30T00:18:05;8.65;;;4.95;;
45792;SDS011;31495;42.740;22.908;2023-08-30T00:19:05;8.75;;;5.03;;
45792;SDS011;31495;42.740;22.908;2023-08-30T00:20:05;11.93;;;5.43;;
45792;SDS011;31495;42.740;22.908;2023-08-30T00:21:06;8.02;;;5.28;;
45792;SDS011;31495;42.740;22.908;2023-08-30T00:22:06;11.68;;;5.68;;
45792;SDS011;31495;42.740;22.908;2023-08-30T00:23:06;9.93;;;5.25;;
45792;SDS011;31495;42.740;22.908;2023-08-30T00:24:05;12.27;;;5.32;;
45792;SDS011;31495;42.740;22.908;2023-08-30T00:25:05;8.68;;;5.07;;
45792;SDS011;31495;42.740;22.908;2023-08-30T00:26:05;9.25;;;5.15;;
45792;SDS011;31495;42.740;22.908;2023-08-30T00:27:05;7.85;;;4.78;;
45792;SDS011;31495;42.740;22.908;2023-08-30T00:28:05;11.68;;;5.10;;
45792;SDS011;31495;42.740;22.908;2023-08-30T00:29:05;13.57;;;5.78;;
45792;SDS011;31495;42.740;22.908;2023-08-30T00:30:05;10.98;;;5.07;;
45792;SDS011;31495;42.740;22.908;2023-08-30T00:31:05;12.88;;;4.72;;
45792;SDS011;31495;42.740;22.908;2023-08-30T00:32:05;12.07;;;5.40;;
45792;SDS011;31495;42.740;22.908;2023-08-30T00:33:04;9.68;;;5.35;;
45792;SDS011;31495;42.740;22.908;2023-08-30T00:34:04;9.75;;;5.07;;
45792;SDS011;31495;42.740;22.908;2023-08-30T00:35:04;8.40;;;4.65;;
45792;SDS011;31495;42.740;22.908;2023-08-30T00:36:04;9.85;;;4.88;;
45792;SDS011;31495;42.740;22.908;2023-08-30T00:37:04;12.10;;;5.68;;
45792;SDS011;31495;42.740;22.908;2023-08-30T00:38:04;8.45;;;5.05;;
45792;SDS011;31495;42.740;22.908;2023-08-30T00:39:04;9.40;;;4.70;;
45792;SDS011;31495;42.740;22.908;2023-08-30T00:40:03;9.13;;;4.95;;
45792;SDS011;31495;42.740;22.908;2023-08-30T00:41:05;8.55;;;5.00;;
45792;SDS011;31495;42.740;22.908;2023-08-30T00:42:05;6.82;;;5.32;;
45792;SDS011;31495;42.740;22.908;2023-08-30T00:43:07;11.00;;;5.18;;
45792;SDS011;31495;42.740;22.908;2023-08-30T00:44:07;9.02;;;5.65;;
45792;SDS011;31495;42.740;22.908;2023-08-30T00:45:06;9.70;;;5.07;;
45792;SDS011;31495;42.740;22.908;2023-08-30T00:46:06;10.68;;;5.38;;
45792;SDS011;31495;42.740;22.908;2023-08-30T00:47:06;7.00;;;4.80;;
45792;SDS011;31495;42.740;22.908;2023-08-30T00:48:06;8.90;;;5.30;;
45792;SDS011;31495;42.740;22.908;2023-08-30T00:49:06;10.98;;;5.45;;
45792;SDS011;31495;42.740;22.908;2023-08-30T00:50:06;11.07;;;5.10;;
45792;SDS011;31495;42.740;22.908;2023-08-30T00:51:06;11.15;;;5.32;;
45792;SDS011;31495;42.740;22.908;2023-08-30T00:52:07;8.90;;;4.90;;
45792;SDS011;31495;42.740;22.908;2023-08-30T00:53:09;9.10;;;5.13;;
45792;SDS011;31495;42.740;22.908;2023-08-30T00:54:10;10.00;;;6.07;;
45792;SDS011;31495;42.740;22.908;2023-08-30T00:55:10;11.32;;;5.38;;
45792;SDS011;31495;42.740;22.908;2023-08-30T00:56:10;9.73;;;5.78;;
45792;SDS011;31495;42.740;22.908;2023-08-30T00:57:10;9.88;;;4.95;;
45792;SDS011;31495;42.740;22.908;2023-08-30T00:58:10;8.90;;;4.93;;
45792;SDS011;31495;42.740;22.908;2023-08-30T00:59:10;13.80;;;5.25;;
45792;SDS011;31495;42.740;22.908;2023-08-30T01:00:10;10.20;;;5.25;;
45792;SDS011;31495;42.740;22.908;2023-08-30T01:01:10;12.50;;;5.63;;
45792;SDS011;31495;42.740;22.908;2023-08-30T01:02:12;15.52;;;5.70;;
45792;SDS011;31495;42.740;22.908;2023-08-30T01:03:12;10.82;;;5.40;;
45792;SDS011;31495;42.740;22.908;2023-08-30T01:04:12;8.63;;;5.28;;
45792;SDS011;31495;42.740;22.908;2023-08-30T01:05:12;8.13;;;4.70;;
45792;SDS011;31495;42.740;22.908;2023-08-30T01:06:12;13.45;;;6.28;;
45792;SDS011;31495;42.740;22.908;2023-08-30T01:07:13;9.10;;;4.87;;
45792;SDS011;31495;42.740;22.908;2023-08-30T01:08:12;10.85;;;5.03;;
45792;SDS011;31495;42.740;22.908;2023-08-30T01:09:12;7.22;;;4.40;;
45792;SDS011;31495;42.740;22.908;2023-08-30T01:10:12;13.40;;;5.80;;
45792;SDS011;31495;42.740;22.908;2023-08-30T01:11:19;11.32;;;5.78;;
45792;SDS011;31495;42.740;22.908;2023-08-30T01:12:32;8.95;;;5.18;;
45792;SDS011;31495;42.740;22.908;2023-08-30T01:13:40;10.40;;;5.45;;
45792;SDS011;31495;42.740;22.908;2023-08-30T01:15:53;9.55;;;5.07;;
45792;SDS011;31495;42.740;22.908;2023-08-30T01:16:53;10.82;;;5.18;;
45792;SDS011;31495;42.740;22.908;2023-08-30T01:17:56;11.65;;;5.80;;
45792;SDS011;31495;42.740;22.908;2023-08-30T01:18:56;11.18;;;4.60;;
45792;SDS011;31495;42.740;22.908;2023-08-30T01:20:01;11.75;;;5.57;;
45792;SDS011;31495;42.740;22.908;2023-08-30T01:21:21;10.00;;;4.75;;
45792;SDS011;31495;42.740;22.908;2023-08-30T01:24:54;12.50;;;4.40;;
45792;SDS011;31495;42.740;22.908;2023-08-30T01:26:13;12.00;;;4.93;;
45792;SDS011;31495;42.740;22.908;2023-08-30T01:27:25;11.25;;;4.32;;
45792;SDS011;31495;42.740;22.908;2023-08-30T01:28:28;9.35;;;4.63;;
45792;SDS011;31495;42.740;22.908;2023-08-30T01:29:29;9.35;;;4.05;;
45792;SDS011;31495;42.740;22.908;2023-08-30T01:30:32;9.45;;;4.75;;
45792;SDS011;31495;42.740;22.908;2023-08-30T01:31:32;9.85;;;4.43;;
45792;SDS011;31495;42.740;22.908;2023-08-30T01:32:33;12.68;;;4.70;;
45792;SDS011;31495;42.740;22.908;2023-08-30T01:33:34;10.65;;;5.00;;
45792;SDS011;31495;42.740;22.908;2023-08-30T01:35:36;8.32;;;4.65;;
45792;SDS011;31495;42.740;22.908;2023-08-30T01:36:39;9.02;;;4.85;;
45792;SDS011;31495;42.740;22.908;2023-08-30T01:38:40;7.45;;;4.57;;
45792;SDS011;31495;42.740;22.908;2023-08-30T01:39:41;9.88;;;4.90;;
45792;SDS011;31495;42.740;22.908;2023-08-30T01:40:42;11.60;;;4.97;;
45792;SDS011;31495;42.740;22.908;2023-08-30T01:41:42;7.10;;;4.43;;
45792;SDS011;31495;42.740;22.908;2023-08-30T01:42:43;15.18;;;4.38;;
45792;SDS011;31495;42.740;22.908;2023-08-30T01:44:45;9.35;;;4.95;;
45792;SDS011;31495;42.740;22.908;2023-08-30T01:45:44;10.27;;;4.88;;
45792;SDS011;31495;42.740;22.908;2023-08-30T01:46:44;9.85;;;4.18;;
45792;SDS011;31495;42.740;22.908;2023-08-30T01:47:45;11.13;;;4.82;;
45792;SDS011;31495;42.740;22.908;2023-08-30T01:48:46;10.35;;;5.15;;
45792;SDS011;31495;42.740;22.908;2023-08-30T01:49:47;14.00;;;5.50;;
45792;SDS011;31495;42.740;22.908;2023-08-30T01:50:47;14.88;;;5.57;;
45792;SDS011;31495;42.740;22.908;2023-08-30T01:51:47;13.52;;;5.35;;
45792;SDS011;31495;42.740;22.908;2023-08-30T01:52:49;16.50;;;5.22;;
45792;SDS011;31495;42.740;22.908;2023-08-30T01:54:52;13.45;;;4.47;;
45792;SDS011;31495;42.740;22.908;2023-08-30T01:55:54;18.83;;;6.43;;
45792;SDS011;31495;42.740;22.908;2023-08-30T01:56:54;14.85;;;6.25;;
45792;SDS011;31495;42.740;22.908;2023-08-30T01:57:54;12.55;;;5.50;;
45792;SDS011;31495;42.740;22.908;2023-08-30T01:58:53;12.10;;;5.18;;
45792;SDS011;31495;42.740;22.908;2023-08-30T01:59:53;10.93;;;5.03;;
45792;SDS011;31495;42.740;22.908;2023-08-30T02:00:52;15.27;;;5.03;;
45792;SDS011;31495;42.740;22.908;2023-08-30T02:01:52;11.65;;;4.60;;
45792;SDS011;31495;42.740;22.908;2023-08-30T02:02:52;10.18;;;5.32;;
45792;SDS011;31495;42.740;22.908;2023-08-30T02:03:51;14.60;;;5.60;;
45792;SDS011;31495;42.740;22.908;2023-08-30T02:04:51;14.30;;;5.45;;
45792;SDS011;31495;42.740;22.908;2023-08-30T02:07:03;17.13;;;5.50;;
45792;SDS011;31495;42.740;22.908;2023-08-30T02:08:09;11.70;;;5.40;;
45792;SDS011;31495;42.740;22.908;2023-08-30T02:09:14;14.55;;;5.38;;
45792;SDS011;31495;42.740;22.908;2023-08-30T02:10:31;15.90;;;5.63;;
45792;SDS011;31495;42.740;22.908;2023-08-30T02:11:34;9.75;;;5.00;;
45792;SDS011;31495;42.740;22.908;2023-08-30T02:12:41;9.55;;;5.40;;
45792;SDS011;31495;42.740;22.908;2023-08-30T02:13:45;13.48;;;5.57;;
45792;SDS011;31495;42.740;22.908;2023-08-30T02:14:47;11.95;;;4.75;;
45792;SDS011;31495;42.740;22.908;2023-08-30T02:15:47;12.90;;;4.68;;
45792;SDS011;31495;42.740;22.908;2023-08-30T02:16:49;8.43;;;5.13;;
45792;SDS011;31495;42.740;22.908;2023-08-30T02:17:49;7.55;;;4.97;;
45792;SDS011;31495;42.740;22.908;2023-08-30T02:18:50;10.73;;;5.13;;
45792;SDS011;31495;42.740;22.908;2023-08-30T02:19:49;10.77;;;4.70;;
45792;SDS011;31495;42.740;22.908;2023-08-30T02:20:52;12.35;;;4.90;;
45792;SDS011;31495;42.740;22.908;2023-08-30T02:21:52;10.85;;;4.13;;
45792;SDS011;31495;42.740;22.908;2023-08-30T02:22:52;11.23;;;4.80;;
45792;SDS011;31495;42.740;22.908;2023-08-30T02:23:57;6.85;;;4.18;;
45792;SDS011;31495;42.740;22.908;2023-08-30T02:24:56;8.27;;;4.68;;
45792;SDS011;31495;42.740;22.908;2023-08-30T02:25:56;8.00;;;4.43;;
45792;SDS011;31495;42.740;22.908;2023-08-30T02:26:56;10.95;;;4.65;;
45792;SDS011;31495;42.740;22.908;2023-08-30T02:27:55;16.95;;;4.60;;
45792;SDS011;31495;42.740;22.908;2023-08-30T02:28:55;8.90;;;4.95;;
45792;SDS011;31495;42.740;22.908;2023-08-30T02:29:54;11.57;;;4.82;;
45792;SDS011;31495;42.740;22.908;2023-08-30T02:30:54;9.10;;;4.22;;
45792;SDS011;31495;42.740;22.908;2023-08-30T02:31:54;11.02;;;4.32;;
45792;SDS011;31495;42.740;22.908;2023-08-30T02:32:53;8.13;;;5.20;;
45792;SDS011;31495;42.740;22.908;2023-08-30T02:33:53;7.00;;;4.80;;
45792;SDS011;31495;42.740;22.908;2023-08-30T02:34:53;13.15;;;5.03;;
45792;SDS011;31495;42.740;22.908;2023-08-30T02:35:52;9.05;;;4.32;;
45792;SDS011;31495;42.740;22.908;2023-08-30T02:36:53;9.77;;;4.88;;
45792;SDS011;31495;42.740;22.908;2023-08-30T02:37:52;10.30;;;4.55;;
45792;SDS011;31495;42.740;22.908;2023-08-30T02:38:52;11.10;;;5.30;;
45792;SDS011;31495;42.740;22.908;2023-08-30T02:39:51;10.30;;;4.47;;
45792;SDS011;31495;42.740;22.908;2023-08-30T02:40:50;8.63;;;3.88;;
45792;SDS011;31495;42.740;22.908;2023-08-30T02:41:50;8.55;;;4.03;;
45792;SDS011;31495;42.740;22.908;2023-08-30T02:42:49;7.60;;;4.65;;
45792;SDS011;31495;42.740;22.908;2023-08-30T02:43:49;15.73;;;6.05;;
45792;SDS011;31495;42.740;22.908;2023-08-30T02:44:48;7.00;;;4.00;;
45792;SDS011;31495;42.740;22.908;2023-08-30T02:45:48;6.47;;;4.18;;
45792;SDS011;31495;42.740;22.908;2023-08-30T02:46:47;11.93;;;5.00;;
45792;SDS011;31495;42.740;22.908;2023-08-30T02:47:47;9.05;;;4.35;;
45792;SDS011;31495;42.740;22.908;2023-08-30T02:48:47;8.02;;;4.55;;
45792;SDS011;31495;42.740;22.908;2023-08-30T02:49:47;9.70;;;4.82;;
45792;SDS011;31495;42.740;22.908;2023-08-30T02:50:46;8.07;;;4.28;;
45792;SDS011;31495;42.740;22.908;2023-08-30T02:51:45;7.32;;;3.75;;
45792;SDS011;31495;42.740;22.908;2023-08-30T02:52:45;8.82;;;4.15;;
45792;SDS011;31495;42.740;22.908;2023-08-30T02:53:44;7.05;;;4.20;;
45792;SDS011;31495;42.740;22.908;2023-08-30T02:54:44;13.88;;;4.78;;
45792;SDS011;31495;42.740;22.908;2023-08-30T02:55:43;7.88;;;4.35;;
45792;SDS011;31495;42.740;22.908;2023-08-30T02:56:43;13.32;;;4.75;;
45792;SDS011;31495;42.740;22.908;2023-08-30T02:57:43;8.82;;;3.92;;
45792;SDS011;31495;42.740;22.908;2023-08-30T02:58:42;9.50;;;3.80;;
45792;SDS011;31495;42.740;22.908;2023-08-30T02:59:42;7.97;;;4.10;;
45792;SDS011;31495;42.740;22.908;2023-08-30T03:00:41;10.38;;;4.25;;
45792;SDS011;31495;42.740;22.908;2023-08-30T03:01:41;9.32;;;4.28;;
45792;SDS011;31495;42.740;22.908;2023-08-30T03:02:40;9.38;;;3.78;;
45792;SDS011;31495;42.740;22.908;2023-08-30T03:03:40;12.65;;;4.25;;
45792;SDS011;31495;42.740;22.908;2023-08-30T03:04:40;7.25;;;4.03;;
45792;SDS011;31495;42.740;22.908;2023-08-30T03:05:40;6.38;;;3.85;;
45792;SDS011;31495;42.740;22.908;2023-08-30T03:06:39;9.10;;;5.18;;
45792;SDS011;31495;42.740;22.908;2023-08-30T03:07:39;9.55;;;4.45;;
45792;SDS011;31495;42.740;22.908;2023-08-30T03:08:39;7.35;;;4.05;;
45792;SDS011;31495;42.740;22.908;2023-08-30T03:09:39;8.43;;;4.38;;
45792;SDS011;31495;42.740;22.908;2023-08-30T03:10:39;7.88;;;4.35;;
45792;SDS011;31495;42.740;22.908;2023-08-30T03:11:39;7.45;;;4.25;;
45792;SDS011;31495;42.740;22.908;2023-08-30T03:12:38;12.68;;;4.57;;
45792;SDS011;31495;42.740;22.908;2023-08-30T03:13:38;8.02;;;3.88;;
45792;SDS011;31495;42.740;22.908;2023-08-30T03:14:37;8.07;;;4.43;;
45792;SDS011;31495;42.740;22.908;2023-08-30T03:15:37;9.40;;;3.75;;
45792;SDS011;31495;42.740;22.908;2023-08-30T03:16:36;9.40;;;4.40;;
45792;SDS011;31495;42.740;22.908;2023-08-30T03:17:35;10.82;;;3.85;;
45792;SDS011;31495;42.740;22.908;2023-08-30T03:18:35;8.27;;;3.40;;
45792;SDS011;31495;42.740;22.908;2023-08-30T03:19:35;7.05;;;4.18;;
45792;SDS011;31495;42.740;22.908;2023-08-30T03:20:34;10.85;;;4.55;;
45792;SDS011;31495;42.740;22.908;2023-08-30T03:21:34;9.05;;;4.47;;
45792;SDS011;31495;42.740;22.908;2023-08-30T03:22:33;11.75;;;3.60;;
45792;SDS011;31495;42.740;22.908;2023-08-30T03:23:33;8.45;;;3.70;;
45792;SDS011;31495;42.740;22.908;2023-08-30T03:24:32;6.88;;;3.72;;
45792;SDS011;31495;42.740;22.908;2023-08-30T03:25:32;6.82;;;3.30;;
45792;SDS011;31495;42.740;22.908;2023-08-30T03:26:31;6.88;;;4.07;;
45792;SDS011;31495;42.740;22.908;2023-08-30T03:27:32;11.35;;;3.83;;
45792;SDS011;31495;42.740;22.908;2023-08-30T03:28:31;9.85;;;4.20;;
45792;SDS011;31495;42.740;22.908;2023-08-30T03:29:31;7.30;;;3.70;;
45792;SDS011;31495;42.740;22.908;2023-08-30T03:30:30;10.05;;;3.75;;
45792;SDS011;31495;42.740;22.908;2023-08-30T03:31:30;7.55;;;3.88;;
45792;SDS011;31495;42.740;22.908;2023-08-30T03:32:29;10.07;;;3.92;;
45792;SDS011;31495;42.740;22.908;2023-08-30T03:33:31;8.32;;;5.00;;
45792;SDS011;31495;42.740;22.908;2023-08-30T03:34:31;8.27;;;4.15;;
45792;SDS011;31495;42.740;22.908;2023-08-30T03:35:33;7.00;;;3.90;;
45792;SDS011;31495;42.740;22.908;2023-08-30T03:36:33;11.45;;;4.07;;
45792;SDS011;31495;42.740;22.908;2023-08-30T03:37:32;6.38;;;4.00;;
45792;SDS011;31495;42.740;22.908;2023-08-30T03:38:32;10.38;;;4.97;;
45792;SDS011;31495;42.740;22.908;2023-08-30T03:39:31;8.65;;;4.40;;
45792;SDS011;31495;42.740;22.908;2023-08-30T03:40:31;8.85;;;4.60;;
45792;SDS011;31495;42.740;22.908;2023-08-30T03:41:30;12.57;;;5.93;;
45792;SDS011;31495;42.740;22.908;2023-08-30T03:42:30;8.13;;;3.45;;
45792;SDS011;31495;42.740;22.908;2023-08-30T03:43:30;11.77;;;4.25;;
45792;SDS011;31495;42.740;22.908;2023-08-30T03:44:30;7.38;;;4.35;;
45792;SDS011;31495;42.740;22.908;2023-08-30T03:45:33;7.80;;;3.67;;
45792;SDS011;31495;42.740;22.908;2023-08-30T03:46:33;6.32;;;3.50;;
45792;SDS011;31495;42.740;22.908;2023-08-30T03:47:33;9.95;;;3.97;;
45792;SDS011;31495;42.740;22.908;2023-08-30T03:48:32;8.98;;;4.53;;
45792;SDS011;31495;42.740;22.908;2023-08-30T03:49:32;5.32;;;3.45;;
45792;SDS011;31495;42.740;22.908;2023-08-30T03:50:31;14.88;;;4.53;;
45792;SDS011;31495;42.740;22.908;2023-08-30T03:51:31;8.43;;;3.95;;
45792;SDS011;31495;42.740;22.908;2023-08-30T03:52:30;10.10;;;4.57;;
45792;SDS011;31495;42.740;22.908;2023-08-30T03:53:29;12.23;;;4.45;;
45792;SDS011;31495;42.740;22.908;2023-08-30T03:54:29;13.68;;;4.10;;
45792;SDS011;31495;42.740;22.908;2023-08-30T03:55:28;14.15;;;3.90;;
45792;SDS011;31495;42.740;22.908;2023-08-30T03:56:28;7.68;;;3.30;;
45792;SDS011;31495;42.740;22.908;2023-08-30T03:57:27;9.93;;;4.30;;
45792;SDS011;31495;42.740;22.908;2023-08-30T03:58:27;10.60;;;4.35;;
45792;SDS011;31495;42.740;22.908;2023-08-30T03:59:26;6.57;;;4.78;;
45792;SDS011;31495;42.740;22.908;2023-08-30T04:00:28;11.18;;;4.13;;
45792;SDS011;31495;42.740;22.908;2023-08-30T04:01:28;11.65;;;4.40;;
45792;SDS011;31495;42.740;22.908;2023-08-30T04:02:27;9.77;;;3.78;;
45792;SDS011;31495;42.740;22.908;2023-08-30T04:03:27;9.45;;;3.72;;
45792;SDS011;31495;42.740;22.908;2023-08-30T04:04:28;6.95;;;3.80;;
45792;SDS011;31495;42.740;22.908;2023-08-30T04:05:32;8.50;;;4.05;;
45792;SDS011;31495;42.740;22.908;2023-08-30T04:06:33;10.00;;;4.72;;
45792;SDS011;31495;42.740;22.908;2023-08-30T04:07:32;10.82;;;3.58;;
45792;SDS011;31495;42.740;22.908;2023-08-30T04:08:31;7.35;;;4.13;;
45792;SDS011;31495;42.740;22.908;2023-08-30T04:09:31;11.65;;;4.18;;
45792;SDS011;31495;42.740;22.908;2023-08-30T04:10:34;11.40;;;4.78;;
45792;SDS011;31495;42.740;22.908;2023-08-30T04:11:38;8.60;;;4.18;;
45792;SDS011;31495;42.740;22.908;2023-08-30T04:12:38;6.20;;;4.00;;
45792;SDS011;31495;42.740;22.908;2023-08-30T04:13:37;10.27;;;4.38;;
45792;SDS011;31495;42.740;22.908;2023-08-30T04:14:37;11.30;;;4.32;;
45792;SDS011;31495;42.740;22.908;2023-08-30T04:15:36;10.20;;;4.13;;
45792;SDS011;31495;42.740;22.908;2023-08-30T04:16:37;12.73;;;3.72;;
45792;SDS011;31495;42.740;22.908;2023-08-30T04:17:37;7.75;;;3.90;;
45792;SDS011;31495;42.740;22.908;2023-08-30T04:18:36;8.60;;;4.07;;
45792;SDS011;31495;42.740;22.908;2023-08-30T04:19:36;8.07;;;4.13;;
45792;SDS011;31495;42.740;22.908;2023-08-30T04:20:35;8.40;;;3.55;;
45792;SDS011;31495;42.740;22.908;2023-08-30T04:21:35;6.32;;;3.40;;
45792;SDS011;31495;42.740;22.908;2023-08-30T04:22:34;6.00;;;3.45;;
45792;SDS011;31495;42.740;22.908;2023-08-30T04:23:34;9.95;;;4.30;;
45792;SDS011;31495;42.740;22.908;2023-08-30T04:24:34;7.30;;;3.97;;
45792;SDS011;31495;42.740;22.908;2023-08-30T04:25:33;11.93;;;5.88;;
45792;SDS011;31495;42.740;22.908;2023-08-30T04:26:33;10.95;;;6.50;;
45792;SDS011;31495;42.740;22.908;2023-08-30T04:27:33;9.98;;;5.95;;
45792;SDS011;31495;42.740;22.908;2023-08-30T04:28:33;10.05;;;6.38;;
45792;SDS011;31495;42.740;22.908;2023-08-30T04:29:32;11.55;;;7.20;;
45792;SDS011;31495;42.740;22.908;2023-08-30T04:30:32;11.15;;;6.22;;
45792;SDS011;31495;42.740;22.908;2023-08-30T04:31:32;13.15;;;6.68;;
45792;SDS011;31495;42.740;22.908;2023-08-30T04:32:31;10.57;;;6.13;;
45792;SDS011;31495;42.740;22.908;2023-08-30T04:33:31;10.30;;;6.63;;
45792;SDS011;31495;42.740;22.908;2023-08-30T04:34:32;12.43;;;6.43;;
45792;SDS011;31495;42.740;22.908;2023-08-30T04:35:31;10.95;;;5.43;;
45792;SDS011;31495;42.740;22.908;2023-08-30T04:36:31;7.43;;;5.15;;
45792;SDS011;31495;42.740;22.908;2023-08-30T04:37:31;9.90;;;5.65;;
45792;SDS011;31495;42.740;22.908;2023-08-30T04:38:30;8.07;;;5.72;;
45792;SDS011;31495;42.740;22.908;2023-08-30T04:39:30;9.40;;;5.95;;
45792;SDS011;31495;42.740;22.908;2023-08-30T04:40:29;9.73;;;5.18;;
45792;SDS011;31495;42.740;22.908;2023-08-30T04:41:29;11.27;;;5.90;;
45792;SDS011;31495;42.740;22.908;2023-08-30T04:42:29;9.10;;;5.78;;
45792;SDS011;31495;42.740;22.908;2023-08-30T04:43:28;8.27;;;5.68;;
45792;SDS011;31495;42.740;22.908;2023-08-30T04:44:28;11.25;;;6.40;;
45792;SDS011;31495;42.740;22.908;2023-08-30T04:45:28;14.00;;;7.03;;
45792;SDS011;31495;42.740;22.908;2023-08-30T04:46:28;16.38;;;7.47;;
45792;SDS011;31495;42.740;22.908;2023-08-30T04:47:30;12.95;;;8.00;;
45792;SDS011;31495;42.740;22.908;2023-08-30T04:48:30;12.63;;;7.05;;
45792;SDS011;31495;42.740;22.908;2023-08-30T04:49:30;14.10;;;7.22;;
45792;SDS011;31495;42.740;22.908;2023-08-30T04:50:29;10.80;;;6.38;;
45792;SDS011;31495;42.740;22.908;2023-08-30T04:51:30;12.60;;;6.57;;
45792;SDS011;31495;42.740;22.908;2023-08-30T04:52:29;13.98;;;7.03;;
45792;SDS011;31495;42.740;22.908;2023-08-30T04:53:28;17.42;;;7.13;;
45792;SDS011;31495;42.740;22.908;2023-08-30T04:54:28;17.67;;;7.57;;
45792;SDS011;31495;42.740;22.908;2023-08-30T04:55:30;12.13;;;6.85;;
45792;SDS011;31495;42.740;22.908;2023-08-30T04:56:29;12.40;;;7.43;;
45792;SDS011;31495;42.740;22.908;2023-08-30T04:57:29;13.18;;;8.88;;
45792;SDS011;31495;42.740;22.908;2023-08-30T04:58:28;11.90;;;7.63;;
45792;SDS011;31495;42.740;22.908;2023-08-30T04:59:28;12.77;;;8.60;;
45792;SDS011;31495;42.740;22.908;2023-08-30T05:00:28;14.60;;;8.50;;
45792;SDS011;31495;42.740;22.908;2023-08-30T05:01:27;13.85;;;7.55;;
45792;SDS011;31495;42.740;22.908;2023-08-30T05:02:27;12.98;;;8.75;;
45792;SDS011;31495;42.740;22.908;2023-08-30T05:03:26;12.10;;;8.00;;
45792;SDS011;31495;42.740;22.908;2023-08-30T05:04:26;11.52;;;8.13;;
45792;SDS011;31495;42.740;22.908;2023-08-30T05:05:26;12.80;;;8.27;;
45792;SDS011;31495;42.740;22.908;2023-08-30T05:06:26;11.88;;;7.88;;
45792;SDS011;31495;42.740;22.908;2023-08-30T05:07:25;17.75;;;9.07;;
45792;SDS011;31495;42.740;22.908;2023-08-30T05:08:25;14.95;;;8.00;;
45792;SDS011;31495;42.740;22.908;2023-08-30T05:09:24;13.77;;;8.80;;
45792;SDS011;31495;42.740;22.908;2023-08-30T05:10:24;13.38;;;8.93;;
45792;SDS011;31495;42.740;22.908;2023-08-30T05:11:23;12.82;;;8.18;;
45792;SDS011;31495;42.740;22.908;2023-08-30T05:12:23;16.23;;;8.40;;
45792;SDS011;31495;42.740;22.908;2023-08-30T05:13:22;11.73;;;7.57;;
45792;SDS011;31495;42.740;22.908;2023-08-30T05:14:22;14.32;;;7.90;;
45792;SDS011;31495;42.740;22.908;2023-08-30T05:15:21;10.52;;;7.65;;
45792;SDS011;31495;42.740;22.908;2023-08-30T05:16:20;11.25;;;8.18;;
45792;SDS011;31495;42.740;22.908;2023-08-30T05:17:20;13.52;;;8.40;;
45792;SDS011;31495;42.740;22.908;2023-08-30T05:18:19;11.98;;;8.63;;
45792;SDS011;31495;42.740;22.908;2023-08-30T05:19:19;11.40;;;7.47;;
45792;SDS011;31495;42.740;22.908;2023-08-30T05:20:18;13.45;;;7.95;;
45792;SDS011;31495;42.740;22.908;2023-08-30T05:21:18;10.75;;;7.60;;
45792;SDS011;31495;42.740;22.908;2023-08-30T05:22:18;13.48;;;7.47;;
45792;SDS011;31495;42.740;22.908;2023-08-30T05:23:18;11.70;;;7.82;;
45792;SDS011;31495;42.740;22.908;2023-08-30T05:24:18;13.80;;;8.10;;
45792;SDS011;31495;42.740;22.908;2023-08-30T05:25:18;10.57;;;8.05;;
45792;SDS011;31495;42.740;22.908;2023-08-30T05:26:18;10.40;;;6.70;;
45792;SDS011;31495;42.740;22.908;2023-08-30T05:27:18;12.02;;;7.22;;
45792;SDS011;31495;42.740;22.908;2023-08-30T05:28:18;12.20;;;8.45;;
45792;SDS011;31495;42.740;22.908;2023-08-30T05:29:18;16.15;;;7.70;;
45792;SDS011;31495;42.740;22.908;2023-08-30T05:30:19;13.50;;;6.60;;
45792;SDS011;31495;42.740;22.908;2023-08-30T05:31:19;8.93;;;6.78;;
45792;SDS011;31495;42.740;22.908;2023-08-30T05:32:19;14.77;;;8.10;;
45792;SDS011;31495;42.740;22.908;2023-08-30T05:33:19;15.52;;;8.00;;
45792;SDS011;31495;42.740;22.908;2023-08-30T05:34:18;13.60;;;7.20;;
45792;SDS011;31495;42.740;22.908;2023-08-30T05:35:18;11.93;;;7.43;;
45792;SDS011;31495;42.740;22.908;2023-08-30T05:36:18;14.10;;;7.18;;
45792;SDS011;31495;42.740;22.908;2023-08-30T05:37:18;12.68;;;6.75;;
45792;SDS011;31495;42.740;22.908;2023-08-30T05:38:18;13.65;;;7.88;;
45792;SDS011;31495;42.740;22.908;2023-08-30T05:39:18;9.48;;;6.95;;
45792;SDS011;31495;42.740;22.908;2023-08-30T05:40:19;11.82;;;7.60;;
45792;SDS011;31495;42.740;22.908;2023-08-30T05:41:19;12.52;;;7.95;;
45792;SDS011;31495;42.740;22.908;2023-08-30T05:42:18;15.02;;;7.55;;
45792;SDS011;31495;42.740;22.908;2023-08-30T05:43:18;15.32;;;8.35;;
45792;SDS011;31495;42.740;22.908;2023-08-30T05:44:18;12.13;;;7.65;;
45792;SDS011;31495;42.740;22.908;2023-08-30T05:45:18;10.40;;;7.05;;
45792;SDS011;31495;42.740;22.908;2023-08-30T05:46:18;10.75;;;6.90;;
45792;SDS011;31495;42.740;22.908;2023-08-30T05:47:18;12.02;;;7.88;;
45792;SDS011;31495;42.740;22.908;2023-08-30T05:48:18;13.43;;;7.40;;
45792;SDS011;31495;42.740;22.908;2023-08-30T05:49:17;9.93;;;6.72;;
45792;SDS011;31495;42.740;22.908;2023-08-30T05:50:16;13.38;;;7.30;;
45792;SDS011;31495;42.740;22.908;2023-08-30T05:51:16;12.63;;;7.90;;
45792;SDS011;31495;42.740;22.908;2023-08-30T05:52:16;14.00;;;7.10;;
45792;SDS011;31495;42.740;22.908;2023-08-30T05:53:15;8.40;;;5.82;;
45792;SDS011;31495;42.740;22.908;2023-08-30T05:54:15;13.95;;;7.07;;
45792;SDS011;31495;42.740;22.908;2023-08-30T05:55:14;12.32;;;6.35;;
45792;SDS011;31495;42.740;22.908;2023-08-30T05:56:14;11.20;;;6.97;;
45792;SDS011;31495;42.740;22.908;2023-08-30T05:57:13;14.15;;;6.57;;
45792;SDS011;31495;42.740;22.908;2023-08-30T05:58:13;11.20;;;6.13;;
45792;SDS011;31495;42.740;22.908;2023-08-30T06:00:14;10.50;;;7.05;;
45792;SDS011;31495;42.740;22.908;2023-08-30T06:01:13;14.98;;;7.30;;
45792;SDS011;31495;42.740;22.908;2023-08-30T06:02:13;11.98;;;7.05;;
45792;SDS011;31495;42.740;22.908;2023-08-30T06:03:12;13.57;;;6.53;;
45792;SDS011;31495;42.740;22.908;2023-08-30T06:04:12;12.05;;;6.35;;